Newton, NC

11:13 AM EST on March 05, 2015 (GMT -0500)
Lincolnton-Lincoln County Regional | Change Station
CLOSE
Current Station
Airport
Location: Lincolnton,
Elevation: 876 ft
Nearby Weather Stations

Elev 876 ft 35.48 °N, 81.16 °W | Updated 18 minutes ago

Rain
Rain
65 °F
Feels Like 65 °F
N
8
Wind Variable Wind from SSW
Gusts 16 mph

Today
High -- | Low -- °F
--% Chance of Precip.
Yesterday
High -- | Low -- °F
Precip. -- in
6:49 AM 6:23 PM
Full, 100% visible
Pressure 29.87 in
Visibility 10.0 miles
Clouds Overcast 900 ft
Dew Point 63 °F
Humidity 92%
Rainfall 0.05 in
Snow Depth Not available.
UV 2 out of 12
Pollen 2.00 out of 12
Air Quality Not available.
Flu Activity Not available.
METAR KIPJ 051555Z AUTO 21007G14KT 170V230 10SM -DZ OVC009 19/17 A2987 RMK AO2 P0001 T01850172

More Conditions Fewer Conditions

Pressure 29.87 in
Visibility 10.0 miles
Clouds Overcast 900 ft
Dew Point 63 °F
Humidity 92%
Rainfall 0.05 in
Snow Depth Not available.
UV 2 out of 12
Pollen 2.00 out of 12
Air Quality Not available.
Flu Activity Not available.
METAR KIPJ 051555Z AUTO 21007G14KT 170V230 10SM -DZ OVC009 19/17 A2987 RMK AO2 P0001 T01850172

More Conditions Fewer Conditions

10-Day Weather Forecast

Almanac

Astronomy

Mar. 05, 2015 Rise Set
Actual Time
Civil Twilight
Nautical Twilight
Astronomical Twilight
Moon
Length of Visible Light
Length of Day
Tomorrow will be .
, % of the Moon is Illuminated

Today's Extremes

State Highs State Lows

Community

WunderPhotos

Upload Photos

1,802,841 photos uploaded!

WunderBlogs® & News

Nearby

Air Quality

  Air Quality AQ Index Pollutant
Not available.

Snow Depth

Station Depth Elevation

Earthquake Activity

City Distance Mag. Time & Date
Minimum magnitude displayed is 2.5.

Coastal Water Temperatures

Place Temperature

Nearby Weather Stations